Historyczne dane pomiarowe

Dodano dane terminowe – wersja testowa.

Dane z okresu 1951-2019

Wersja bazy: 1.34 [2019-03-16, lista zmian], aktualizacja planowana na 2019-04-15

Dane meteo z obszaru Polski uzyskane na podstawie danych udostępnionych przez Instytut Meteorologii i Gospodarki Wodnej – Państwowy Instytut Badawczy.

 

Wybierz Datę:    

       

TemperaturaWilgotnośćWiatrCiśnienieOpadyŚniegCzas trwania zjawisk
 Stacja t tx tn tng RH VA  wxwx mslp ppp RRR   cm mm wxwxwxwxwxwxwx
1999-08-14 16.6 23.3 10.5 10.0 75.3- 2.0 2.7---- 1.4------------
1999-08-13 16.3 21.8 11.7 9.6 66.0- 4.3 3.7---- 0.0------------
1999-08-12 16.2 21.9 11.2 11.0 77.8- 5.3 2.7---- 0.0------------
1999-08-11 20.3 25.8 16.5 13.5 76.3- 3.0 3.3---- 0.2------------
1999-08-10 21.8 28.4 16.1 13.5 74.3- 6.3 1.3---- 0.0------------
1999-08-09 23.1 30.2 18.5 16.8 68.5- 1.3 1.7---- 0.0------------
1999-08-08 24.2 30.3 20.0 19.6 68.5- 3.7 1.7---- 0.0------------
1999-08-07 23.2 29.7 15.6 12.2 67.8- 1.7 1.0---- 0.0------------
1999-08-06 22.9 30.0 16.2 13.6 60.3- 2.7 1.0---- 0.0------------
1999-08-05 21.2 29.4 11.5 8.9 59.0- 1.7 1.0---- 0.0------------
1999-08-04 20.4 28.1 11.5 9.4 77.5- 0.3 1.3---- 0.0------------
1999-08-03 19.7 28.2 10.2 8.2 65.5- 2.0 1.7---- 0.0------------
1999-08-02 19.6 27.2 11.6 9.7 71.0- 1.3 1.0---- 0.0------------
1999-08-01 20.5 27.3 13.2 10.3 64.8- 1.3 2.3---- 0.0------------
1999-07-31 20.6 28.4 11.1 9.1 63.0- 0.3 2.0---- 0.0------------
1999-07-30 19.3 27.2 10.6 8.0 72.3- 1.3 1.7---- 0.0------------
1999-07-29 19.2 26.0 10.8 8.7 70.8- 0.7 2.3---- 0.0------------
1999-07-28 18.0 25.5 10.3 8.7 72.3- 3.0 3.3---- 0.0------------
1999-07-27 17.3 23.9 10.6 9.4 71.5- 2.7 2.0---- 0.0------------
1999-07-26 21.5 27.9 17.7 14.9 84.8- 4.7 1.3---- 8.3------------
1999-07-25 20.4 26.5 14.1 12.0 75.5- 3.3 2.7---- 0.0------------
1999-07-24 18.5 23.8 14.0 12.3 69.8- 6.3 3.0---- 0.0------------
1999-07-23 18.5 24.1 13.1 10.7 65.0- 5.0 4.7---- 0.0------------
1999-07-22 20.0 26.4 15.5 12.2 64.0- 4.7 3.3---- 0.0------------
1999-07-21 23.7 31.3 18.2 15.6 77.8- 3.3 3.3---- 0.0------------
1999-07-20 24.9 33.4 17.1 14.9 66.8- 2.7 1.7---- 1.3------------
1999-07-19 23.2 30.5 15.0 12.3 69.3- 2.3 1.7---- 0.0------------
1999-07-18 22.1 30.7 14.3 11.9 72.8- 3.7 1.3---- 0.0------------
1999-07-17 19.6 25.8 11.5 8.7 71.0- 3.0 1.0---- 0.0------------
1999-07-16 17.5 22.4 12.6 9.9 79.5- 6.3 2.0---- 0.0------------
1999-07-15 19.4 27.4 14.9 14.7 81.0- 2.3 3.0---- 0.0------------
1999-07-14 20.9 28.5 17.5 17.0 92.5- 6.7 1.7---- 9.6------------
1999-07-13 22.8 30.3 19.4 13.8 83.5- 4.3 2.3---- 5.5------------
1999-07-12 22.9 29.4 16.6 14.3 69.0- 2.3 3.0---- 0.0------------
1999-07-11 22.2 28.0 15.6 12.4 64.3- 0.0 2.7---- 0.0------------
1999-07-10 21.0 27.0 14.0 12.7 65.3- 0.3 2.3---- 0.0------------
1999-07-09 19.1 25.1 14.6 14.8 78.5- 2.0 4.3---- 0.0------------
1999-07-08 16.9 20.8 13.2 12.3 98.0- 7.7 3.3---- 6.8------------
1999-07-07 19.0 23.9 15.8 16.3 90.0- 7.3 2.7---- 0.0------------
1999-07-06 24.3 30.2 19.0 16.0 78.0- 5.3 3.0---- 6.9------------
1999-07-05 26.0 34.3 18.0 17.6 66.3- 1.3 3.0---- 0.0------------
1999-07-04 23.7 31.4 16.2 13.4 72.0- 3.0 1.7---- 0.0------------
1999-07-03 21.5 26.8 15.0 11.3 76.0- 3.7 1.0---- 0.0------------
1999-07-02 18.8 24.4 15.6 14.8 84.5- 5.0 1.0---- 0.0------------
1999-07-01 19.9 25.8 14.3 12.3 80.3- 3.3 1.0---- 3.4------------
1999-06-30 20.2 25.6 12.6 9.4 67.0- 1.3 0.7---- 0.0------------
1999-06-29 19.5 24.3 13.7 11.5 72.0- 3.0 0.7---- 0.0------------
1999-06-28 20.9 27.2 15.9 14.6 74.5- 2.7 3.7---- 1.5------------
1999-06-27 20.4 26.5 13.8 13.8 66.3- 2.3 3.3---- 0.0------------
1999-06-26 14.8 20.1 8.2 6.1 73.8- 2.7 1.3---- 0.0------------
1999-06-25 12.8 18.6 8.2 6.2 81.5- 5.3 2.0---- 10.9------------
1999-06-24 12.6 18.1 5.3 2.2 78.0- 5.7 3.0---- 0.0------------
1999-06-23 12.3 15.6 8.1 8.2 88.5- 7.3 4.0---- 0.0------------
1999-06-22 10.4 12.7 8.7 9.7 95.0- 8.0 6.3---- 24.1------------
1999-06-21 15.6 21.4 12.1 12.1 88.3- 7.7 3.0---- 2.2------------
1999-06-20 19.2 24.0 14.6 13.3 76.3- 5.0 0.7---- 0.0------------
1999-06-19 18.5 23.1 15.3 13.8 86.3- 8.0 1.0---- 0.0------------
1999-06-18 19.0 23.2 14.6 13.4 76.3- 6.7 1.3---- 0.0------------
1999-06-17 17.7 22.9 13.6 13.5 87.8- 6.3 1.7---- 0.0------------
1999-06-16 16.5 21.8 10.6 8.9 87.0- 8.0 1.0---- 0.8------------
2422.8 ms

 

Źródłem pochodzenia danych jest Instytut Meteorologii i Gospodarki Wodnej – Państwowy Instytut Badawczy. Dane Instytutu Meteorologii i Gospodarki Wodnej – Państwowego Instytutu Badawczego zostały przetworzone.

Dane źródłowe można odnaleźć na stronie https://dane.imgw.pl